Main page
METAR-TAF:

METAR-TAF

Airports :

Coleman Municipal Airport

Coleman, Texas, United States

latitude: 31-50-28N, longitude: 099-24-12W, elevation: 1696 ft

Current weather observation

The report was made 33 minutes ago, at 02:34 UTC
Wind 18 mph from the South/Southeast with gusts up to 24 mph
Temperature 93°F
Humidity 36%
Pressure 29.73 in. Hg
Visibility: 10 miles
Clear sky

METAR: KCOM 240234Z AUTO 16016G21KT 10SM CLR 34/17 A2973 RMK AO2 LTG DSNT W THRU N

Time: 21:07 (03:07 UTC)


TAF: missing

Weather observations and forecasts of more than 4000 airports (METAR and TAF reports).

The available stations are represented by yellow and red dots on the map.

Hover mouse over dot to see the name of the station.

Then click to see weather observations and forecasts.

To change the map : click on the green buttons with a black cross to zoom in, on the green button with a dash to zoom out, or on the green arrows for adjacent maps.


METAR-TAF: